createdAt,value
2022-10-30T00:01:07.337Z,10.50
2022-10-30T06:04:11.301Z,9.40
2022-10-30T06:06:37.846Z,9.30
2022-10-30T06:09:04.438Z,9.40
2022-10-30T06:11:31.009Z,9.50
2022-10-30T06:13:57.563Z,9.50
2022-10-30T06:16:24.277Z,9.30
2022-10-30T06:18:50.923Z,9.40
2022-10-30T06:21:17.473Z,9.40
2022-10-30T06:23:44.078Z,9.30
2022-10-30T06:26:10.712Z,10.30
2022-10-30T06:28:37.345Z,9.40
2022-10-30T06:31:04.056Z,9.40
2022-10-30T06:33:30.828Z,9.50
2022-10-30T06:35:57.436Z,9.30
2022-10-30T06:38:24.065Z,9.30
2022-10-30T06:40:50.664Z,9.50
2022-10-30T06:43:17.242Z,9.20
2022-10-30T06:45:43.834Z,9.20
2022-10-30T06:48:10.492Z,9.20
2022-10-30T06:50:37.090Z,9.20
2022-10-30T06:53:03.666Z,8.70
2022-10-30T06:55:30.277Z,9.20
2022-10-30T06:57:57.659Z,9.00
2022-10-30T07:00:24.587Z,9.00
2022-10-30T07:03:01.667Z,9.30
2022-10-30T07:05:28.728Z,9.40
2022-10-30T07:07:58.510Z,9.50
2022-10-30T07:10:25.109Z,9.60
2022-10-30T07:12:52.599Z,9.50
2022-10-30T07:15:19.178Z,9.50
2022-10-30T07:17:51.790Z,9.50
2022-10-30T07:20:18.410Z,9.60
2022-10-30T07:22:44.995Z,9.70
2022-10-30T07:25:11.751Z,9.70
2022-10-30T07:27:42.655Z,9.80
2022-10-30T07:30:09.508Z,9.80
2022-10-30T07:32:36.138Z,9.80
2022-10-30T07:35:02.723Z,9.90
2022-10-30T07:37:29.634Z,10.00
2022-10-30T07:39:56.219Z,10.20
2022-10-30T07:42:22.846Z,10.40
2022-10-30T07:44:49.438Z,10.50
2022-10-30T07:47:16.071Z,10.50
2022-10-30T07:49:42.643Z,10.70
2022-10-30T07:52:14.523Z,10.70
2022-10-30T07:54:44.072Z,10.80
2022-10-30T07:57:10.608Z,10.80
2022-10-30T07:59:37.246Z,10.90
2022-10-30T08:02:03.962Z,11.10
2022-10-30T08:04:30.614Z,11.20
2022-10-30T08:06:57.165Z,11.30
2022-10-30T08:09:23.789Z,11.30
2022-10-30T08:11:50.425Z,11.60
2022-10-30T08:14:17.036Z,11.70
2022-10-30T08:16:43.590Z,11.70
2022-10-30T08:19:10.142Z,11.80
2022-10-30T08:21:36.715Z,11.70
2022-10-30T08:24:03.440Z,11.60
2022-10-30T08:26:30.072Z,12.00
2022-10-30T08:28:56.683Z,11.90
2022-10-30T08:31:23.257Z,11.90
2022-10-30T08:33:49.858Z,12.10
2022-10-30T08:36:16.408Z,12.30
2022-10-30T08:38:42.989Z,12.40
2022-10-30T08:41:09.526Z,12.40
2022-10-30T08:43:36.090Z,12.80
2022-10-30T08:46:02.647Z,13.00
2022-10-30T08:48:29.277Z,12.80
2022-10-30T08:51:01.035Z,13.00
2022-10-30T08:53:27.599Z,13.00
2022-10-30T08:55:54.165Z,13.00
2022-10-30T08:58:20.782Z,13.30
2022-10-30T09:00:47.320Z,13.80
2022-10-30T09:03:13.935Z,14.00
2022-10-30T09:05:40.560Z,13.70
2022-10-30T09:08:07.131Z,14.40
2022-10-30T09:10:33.674Z,14.50
2022-10-30T09:13:01.821Z,14.50
2022-10-30T09:15:28.398Z,14.60
2022-10-30T09:17:56.679Z,14.70
2022-10-30T09:20:23.749Z,14.80
2022-10-30T09:22:50.404Z,14.90
2022-10-30T09:25:17.111Z,15.00
2022-10-30T09:27:43.683Z,15.10
2022-10-30T09:30:10.524Z,14.80
2022-10-30T09:32:37.091Z,15.20
2022-10-30T09:35:03.798Z,15.30
2022-10-30T09:37:34.184Z,15.50
2022-10-30T09:40:03.592Z,15.70
2022-10-30T09:42:34.119Z,15.90
2022-10-30T09:45:27.461Z,16.30
2022-10-30T09:48:01.665Z,15.80
2022-10-30T09:50:37.340Z,16.30
2022-10-30T09:53:35.751Z,16.60
2022-10-30T09:56:20.797Z,16.50
2022-10-30T09:59:02.124Z,16.60
2022-10-30T10:01:30.407Z,16.70
2022-10-30T10:03:57.017Z,16.80
2022-10-30T10:06:24.944Z,17.20
2022-10-30T10:08:55.336Z,17.60
2022-10-30T10:11:26.025Z,17.60
2022-10-30T10:13:56.759Z,17.60
2022-10-30T10:16:29.236Z,17.80
2022-10-30T10:18:58.855Z,18.10
2022-10-30T10:23:56.195Z,18.30
2022-10-30T10:26:30.118Z,18.70
2022-10-30T10:29:02.877Z,18.90
2022-10-30T10:31:41.801Z,19.00
2022-10-30T10:36:42.338Z,19.30
2022-10-30T10:39:32.109Z,19.50
2022-10-30T10:42:02.994Z,19.60
2022-10-30T10:44:29.635Z,19.90
2022-10-30T10:47:15.271Z,19.40
2022-10-30T10:49:41.871Z,20.10
2022-10-30T10:52:16.919Z,20.40
2022-10-30T10:54:45.024Z,19.70
2022-10-30T10:59:41.191Z,19.60
2022-10-30T11:02:26.757Z,19.90
2022-10-30T11:04:55.396Z,19.80
2022-10-30T11:07:23.532Z,19.70
2022-10-30T11:09:54.014Z,19.90
2022-10-30T11:12:22.895Z,20.00
2022-10-30T11:14:49.527Z,20.20
2022-10-30T11:17:32.252Z,20.40
2022-10-30T11:20:02.008Z,20.60
2022-10-30T11:24:55.647Z,20.90
2022-10-30T11:27:26.437Z,21.10
2022-10-30T11:30:04.065Z,20.80
2022-10-30T11:32:32.071Z,20.80
2022-10-30T11:35:03.252Z,20.50
2022-10-30T11:37:31.107Z,20.50
2022-10-30T11:40:03.926Z,20.90
2022-10-30T11:42:30.599Z,21.20
2022-10-30T11:49:53.025Z,21.60
2022-10-30T11:52:21.720Z,21.60
2022-10-30T11:54:50.455Z,21.60
2022-10-30T11:57:19.771Z,21.40
2022-10-30T11:59:47.323Z,20.90
2022-10-30T16:12:49.299Z,16.90
2022-10-30T17:04:18.482Z,14.80
2022-10-30T17:06:45.496Z,15.10
2022-10-30T17:11:42.100Z,14.70
2022-10-30T17:14:18.936Z,15.10
2022-10-30T17:16:54.819Z,14.80
2022-10-30T17:19:30.280Z,14.30
2022-10-30T17:22:01.162Z,14.50
2022-10-30T17:24:37.659Z,14.50
2022-10-30T17:27:05.371Z,14.40
2022-10-30T17:29:34.823Z,13.80
2022-10-30T17:32:03.212Z,14.60
2022-10-30T17:34:29.888Z,14.40
2022-10-30T17:39:26.049Z,14.10
2022-10-30T17:41:54.976Z,13.90
2022-10-30T17:54:12.789Z,13.10
2022-10-30T17:56:39.488Z,13.10
2022-10-30T17:59:06.220Z,13.60
2022-10-30T18:01:32.999Z,14.60
2022-10-30T18:03:59.736Z,13.10
2022-10-30T18:06:27.332Z,15.10
2022-10-30T18:08:54.307Z,15.30
2022-10-30T18:11:21.982Z,15.90
2022-10-30T18:13:49.333Z,15.20
2022-10-30T18:16:16.481Z,13.80
2022-10-30T18:21:18.888Z,13.10
2022-10-30T18:23:53.740Z,13.10
2022-10-30T18:26:21.999Z,13.30
2022-10-30T18:28:48.920Z,14.20
2022-10-30T18:33:43.251Z,12.90
2022-10-30T18:36:13.482Z,13.60
2022-10-30T18:38:40.163Z,12.70
2022-10-30T18:41:10.193Z,12.50
2022-10-30T18:43:36.863Z,13.60
2022-10-30T18:46:03.521Z,11.90
2022-10-30T18:48:30.172Z,11.30
2022-10-30T18:50:56.903Z,11.70
2022-10-30T18:53:23.558Z,13.80
2022-10-30T18:55:50.246Z,12.10
2022-10-30T19:03:31.060Z,11.90
2022-10-30T19:05:57.702Z,11.80
2022-10-30T19:08:24.398Z,11.70
2022-10-30T19:10:51.063Z,12.30
2022-10-30T19:13:24.393Z,12.10
2022-10-30T19:15:57.365Z,11.90
2022-10-30T19:18:28.420Z,11.80
2022-10-30T19:21:15.670Z,12.80
2022-10-30T19:28:35.935Z,11.90
2022-10-30T19:33:29.661Z,11.70
2022-10-30T19:35:57.518Z,12.90
2022-10-30T19:38:24.287Z,13.60
2022-10-30T19:40:51.198Z,13.20
2022-10-30T19:43:17.955Z,11.10
2022-10-30T19:48:24.916Z,11.60
2022-10-30T19:53:28.234Z,11.50
2022-10-30T19:55:54.916Z,11.40
2022-10-30T19:58:25.169Z,11.10
2022-10-30T20:00:54.333Z,10.80
2022-10-30T20:05:50.426Z,11.20
2022-10-30T20:08:21.783Z,11.10
2022-10-30T20:10:53.143Z,11.00
2022-10-30T20:13:20.656Z,11.00
2022-10-30T20:15:47.473Z,10.60
2022-10-30T20:18:16.501Z,12.20
2022-10-30T20:23:10.198Z,10.80
2022-10-30T20:37:56.437Z,11.10
2022-10-30T20:40:23.116Z,11.40
2022-10-30T20:42:49.824Z,11.10
2022-10-30T20:47:44.151Z,10.90
2022-10-30T20:50:10.971Z,10.90
2022-10-30T20:52:37.720Z,12.20
2022-10-30T20:55:04.598Z,13.00
2022-10-30T20:57:31.375Z,10.90
2022-10-30T20:59:58.163Z,13.10
2022-10-30T21:02:24.898Z,11.00
2022-10-30T21:07:19.033Z,10.80
2022-10-30T21:09:45.688Z,12.20
2022-10-30T21:12:12.352Z,10.60
2022-10-30T21:14:39.038Z,9.90
2022-10-30T21:17:05.858Z,12.50
2022-10-30T21:19:32.512Z,10.50
2022-10-30T21:24:27.592Z,10.20
2022-10-30T21:34:16.044Z,10.40
2022-10-30T21:53:52.770Z,10.40
2022-10-30T21:56:20.708Z,11.90
2022-10-30T22:08:36.253Z,10.40
2022-10-30T22:40:28.072Z,9.70
2022-10-30T22:42:54.700Z,9.40
2022-10-30T22:45:21.339Z,9.60
2022-10-30T22:47:47.966Z,11.10
2022-10-30T22:50:14.719Z,11.50
2022-10-30T22:52:41.387Z,9.70
2022-10-30T22:55:08.310Z,9.50
2022-10-30T22:57:35.087Z,9.70
2022-10-30T23:00:02.006Z,9.20
2022-10-30T23:02:28.685Z,10.10
2022-10-30T23:04:55.345Z,9.70
2022-10-30T23:07:22.007Z,9.60
2022-10-30T23:09:48.724Z,9.40
2022-10-30T23:14:42.542Z,9.60
